createdAt,value
2023-04-03T00:00:56.537Z,0.91
2023-04-03T00:05:58.327Z,0.75
2023-04-03T00:10:59.978Z,0.70
2023-04-03T00:16:01.913Z,0.51
2023-04-03T00:21:04.308Z,0.36
2023-04-03T00:26:05.967Z,0.30
2023-04-03T00:31:07.687Z,0.17
2023-04-03T00:36:10.735Z,0.00
2023-04-03T00:41:12.894Z,-0.14
2023-04-03T00:46:15.001Z,-0.17
2023-04-03T00:51:25.619Z,-0.29
2023-04-03T00:56:30.774Z,-0.26
2023-04-03T01:01:33.053Z,-0.29
2023-04-03T01:06:38.169Z,-0.23
2023-04-03T01:11:42.502Z,-0.21
2023-04-03T01:16:44.235Z,-0.20
2023-04-03T01:22:04.694Z,-0.27
2023-04-03T01:27:09.153Z,-0.36
2023-04-03T01:32:11.314Z,-0.38
2023-04-03T01:37:12.992Z,-0.37
2023-04-03T01:42:16.916Z,-0.37
2023-04-03T01:47:19.850Z,-0.41
2023-04-03T01:52:21.616Z,-0.47
2023-04-03T01:57:23.388Z,-0.49
2023-04-03T02:02:25.699Z,-0.59
2023-04-03T02:07:28.258Z,-0.66
2023-04-03T02:12:29.903Z,-0.71
2023-04-03T02:17:31.635Z,-0.76
2023-04-03T02:22:33.285Z,-0.82
2023-04-03T02:27:34.969Z,-0.89
2023-04-03T02:32:36.597Z,-0.90
2023-04-03T02:37:39.071Z,-0.94
2023-04-03T02:42:40.771Z,-1.01
2023-04-03T02:47:42.535Z,-1.06
2023-04-03T02:52:45.110Z,-1.12
2023-04-03T02:57:47.176Z,-1.16
2023-04-03T03:02:50.460Z,-1.20
2023-04-03T03:07:52.155Z,-1.20
2023-04-03T03:12:53.802Z,-1.33
2023-04-03T03:17:55.572Z,-1.38
2023-04-03T03:22:57.280Z,-1.38
2023-04-03T03:27:58.902Z,-1.43
2023-04-03T03:33:00.750Z,-1.50
2023-04-03T03:38:02.417Z,-1.59
2023-04-03T03:43:04.306Z,-1.66
2023-04-03T03:48:06.864Z,-1.73
2023-04-03T03:53:08.909Z,-1.83
2023-04-03T03:58:10.774Z,-1.93
2023-04-03T04:03:13.092Z,-1.99
2023-04-03T04:08:16.056Z,-2.07
2023-04-03T04:13:19.733Z,-2.13
2023-04-03T04:18:23.538Z,-2.23
2023-04-03T04:23:25.684Z,-2.25
2023-04-03T04:28:28.772Z,-2.24
2023-04-03T04:33:32.490Z,-2.22
2023-04-03T04:38:37.217Z,-2.33
2023-04-03T04:43:39.247Z,-2.41
2023-04-03T04:48:41.501Z,-2.48
2023-04-03T04:53:44.383Z,-2.50
2023-04-03T04:58:49.059Z,-2.59
2023-04-03T05:03:53.300Z,-2.55
2023-04-03T05:08:54.982Z,-2.45
2023-04-03T05:13:57.737Z,-2.48
2023-04-03T05:19:01.140Z,-2.46
2023-04-03T05:24:04.428Z,-2.41
2023-04-03T05:29:08.911Z,-2.38
2023-04-03T05:34:12.484Z,-2.33
2023-04-03T05:39:15.633Z,-2.30
2023-04-03T05:44:19.382Z,-2.23
2023-04-03T05:49:22.640Z,-2.12
2023-04-03T05:54:27.031Z,-2.00
2023-04-03T05:59:34.877Z,-1.89
2023-04-03T06:04:36.935Z,-1.67
2023-04-03T06:09:38.788Z,-1.54
2023-04-03T06:14:40.557Z,-1.45
2023-04-03T06:19:42.360Z,-1.61
2023-04-03T06:24:44.776Z,-1.69
2023-04-03T06:29:46.499Z,-1.67
2023-04-03T06:34:48.227Z,-1.63
2023-04-03T06:39:50.386Z,-1.63
2023-04-03T06:44:52.050Z,-1.44
2023-04-03T06:49:53.723Z,-1.68
2023-04-03T06:54:58.644Z,-1.53
2023-04-03T07:00:00.890Z,-1.48
2023-04-03T07:05:03.417Z,-1.26
2023-04-03T07:10:06.578Z,-1.63
2023-04-03T07:15:09.366Z,-1.31
2023-04-03T07:20:11.925Z,-1.27
2023-04-03T07:25:15.975Z,-1.17
2023-04-03T07:30:17.586Z,-0.90
2023-04-03T07:35:19.911Z,-0.64
2023-04-03T07:40:22.149Z,-0.17
2023-04-03T07:45:24.887Z,-0.28
2023-04-03T07:50:27.228Z,-0.50
2023-04-03T07:55:28.910Z,-0.29
2023-04-03T08:00:31.099Z,-0.17
2023-04-03T08:05:32.968Z,-0.23
2023-04-03T08:10:35.746Z,-0.13
2023-04-03T08:15:38.105Z,0.01
2023-04-03T08:20:41.439Z,0.12
2023-04-03T08:25:44.082Z,-0.02
2023-04-03T08:30:47.072Z,-0.04
2023-04-03T08:35:48.723Z,0.46
2023-04-03T08:41:03.128Z,0.81
2023-04-03T08:46:07.403Z,1.33
2023-04-03T08:51:18.069Z,1.17
2023-04-03T08:56:20.120Z,1.50
2023-04-03T09:01:31.024Z,1.31
2023-04-03T09:06:33.973Z,0.87
2023-04-03T09:11:51.052Z,1.12
2023-04-03T09:17:02.080Z,0.49
2023-04-03T09:22:17.684Z,0.45
2023-04-03T09:27:19.403Z,0.44
2023-04-03T09:32:32.994Z,0.48
2023-04-03T09:37:43.660Z,0.46
2023-04-03T09:42:51.996Z,1.05
2023-04-03T09:48:18.039Z,1.02
2023-04-03T09:53:40.841Z,1.59
2023-04-03T09:58:50.478Z,2.22
2023-04-03T10:04:17.724Z,1.55
2023-04-03T10:09:28.488Z,0.76
2023-04-03T10:14:31.057Z,0.60
2023-04-03T10:19:44.513Z,1.71
2023-04-03T10:25:04.142Z,3.12
2023-04-03T10:30:30.064Z,5.28
2023-04-03T10:36:12.637Z,4.92
2023-04-03T10:41:35.412Z,3.89
2023-04-03T10:46:49.534Z,2.90
2023-04-03T10:52:22.276Z,2.88
2023-04-03T10:57:26.166Z,3.14
2023-04-03T11:02:37.624Z,3.88
2023-04-03T11:07:43.633Z,3.25
2023-04-03T11:12:50.106Z,3.38
2023-04-03T11:18:21.971Z,2.42
2023-04-03T11:23:35.679Z,2.46
2023-04-03T11:28:45.453Z,4.61
2023-04-03T11:33:59.483Z,4.83
2023-04-03T11:39:11.177Z,8.72
2023-04-03T11:44:48.577Z,5.00
2023-04-03T11:50:06.508Z,3.82
2023-04-03T11:55:20.401Z,3.23
2023-04-03T12:00:53.615Z,2.80
2023-04-03T12:06:18.296Z,9.53
2023-04-03T12:11:19.836Z,10.12
2023-04-03T12:16:27.306Z,6.13
2023-04-03T12:21:35.033Z,10.28
2023-04-03T12:26:58.092Z,9.45
2023-04-03T12:32:24.076Z,6.88
2023-04-03T12:37:25.656Z,4.46
2023-04-03T12:42:30.176Z,3.90
2023-04-03T12:47:39.170Z,3.55
2023-04-03T12:52:45.098Z,2.97
2023-04-03T12:57:47.339Z,3.52
2023-04-03T13:02:49.265Z,5.56
2023-04-03T13:08:15.950Z,5.51
2023-04-03T13:13:17.987Z,3.76
2023-04-03T13:18:36.473Z,4.49
2023-04-03T13:23:41.494Z,11.64
2023-04-03T13:28:44.653Z,10.62
2023-04-03T13:34:04.033Z,5.05
2023-04-03T13:39:27.919Z,3.39
2023-04-03T13:44:36.713Z,4.67
2023-04-03T13:49:41.276Z,4.47
2023-04-03T13:54:43.157Z,3.12
2023-04-03T13:59:45.061Z,2.76
2023-04-03T14:04:57.385Z,3.26
2023-04-03T14:09:59.583Z,3.89
2023-04-03T14:15:02.859Z,3.47
2023-04-03T14:20:05.300Z,3.19
2023-04-03T14:25:07.327Z,2.77
2023-04-03T14:30:33.938Z,2.94
2023-04-03T14:35:35.586Z,3.83
2023-04-03T14:40:37.441Z,3.72
2023-04-03T14:45:40.099Z,2.95
2023-04-03T14:50:49.125Z,3.12
2023-04-03T14:55:56.444Z,3.43
2023-04-03T15:00:58.097Z,3.51
2023-04-03T15:06:00.250Z,3.45
2023-04-03T15:11:02.080Z,2.70
2023-04-03T15:16:05.011Z,2.67
2023-04-03T15:21:06.743Z,2.75
2023-04-03T15:26:08.782Z,3.16
2023-04-03T15:31:10.691Z,2.82
2023-04-03T15:41:18.704Z,2.62
2023-04-03T15:46:20.579Z,2.38
2023-04-03T15:51:22.252Z,2.17
2023-04-03T15:56:23.841Z,2.25
2023-04-03T16:01:25.767Z,2.55
2023-04-03T16:06:30.320Z,2.36
2023-04-03T16:11:31.927Z,1.96
2023-04-03T16:16:33.947Z,2.01
2023-04-03T16:21:35.820Z,1.88
2023-04-03T16:26:37.523Z,1.76
2023-04-03T16:31:39.332Z,1.69
2023-04-03T16:36:41.102Z,1.64
2023-04-03T16:41:42.775Z,1.71
2023-04-03T16:46:46.236Z,1.58
2023-04-03T16:51:50.370Z,1.41
2023-04-03T16:56:52.027Z,1.26
2023-04-03T17:01:53.716Z,1.19
2023-04-03T17:06:56.208Z,1.07
2023-04-03T17:11:57.791Z,1.07
2023-04-03T17:16:59.546Z,0.95
2023-04-03T17:22:02.376Z,0.95
2023-04-03T17:27:04.243Z,0.85
2023-04-03T17:32:05.967Z,0.79
2023-04-03T17:37:07.742Z,0.71
2023-04-03T17:42:09.528Z,0.70
2023-04-03T17:47:11.204Z,0.72
2023-04-03T17:52:12.867Z,0.74
2023-04-03T17:57:14.497Z,0.69
2023-04-03T18:02:16.329Z,0.61
2023-04-03T18:07:17.989Z,0.57
2023-04-03T18:12:19.850Z,0.58
2023-04-03T18:17:22.341Z,0.56
2023-04-03T18:22:24.492Z,0.52
2023-04-03T18:27:28.099Z,0.49
2023-04-03T18:32:29.849Z,0.48
2023-04-03T18:37:31.863Z,0.54
2023-04-03T18:42:33.600Z,0.48
2023-04-03T18:47:36.867Z,0.44
2023-04-03T18:52:38.518Z,0.41
2023-04-03T18:57:40.155Z,0.37
2023-04-03T19:02:42.449Z,0.34
2023-04-03T19:07:44.837Z,0.31
2023-04-03T19:12:48.459Z,0.30
2023-04-03T19:17:51.015Z,0.28
2023-04-03T19:22:53.744Z,0.27
2023-04-03T19:27:55.641Z,0.13
2023-04-03T19:32:57.248Z,-0.06
2023-04-03T19:37:58.870Z,-0.25
2023-04-03T19:43:00.696Z,-0.55
2023-04-03T19:48:03.319Z,-0.73
2023-04-03T19:53:06.932Z,-0.78
2023-04-03T19:58:08.550Z,-0.69
2023-04-03T20:03:10.283Z,-0.55
2023-04-03T20:08:14.465Z,-0.50
2023-04-03T20:13:16.081Z,-0.47
2023-04-03T20:18:19.681Z,-0.42
2023-04-03T20:23:22.416Z,-0.37
2023-04-03T20:28:24.508Z,-0.32
2023-04-03T20:33:29.003Z,-0.24
2023-04-03T20:38:30.629Z,-0.21
2023-04-03T20:43:32.708Z,-0.18
2023-04-03T20:48:34.375Z,-0.21
2023-04-03T20:53:36.064Z,-0.23
2023-04-03T20:58:41.298Z,-0.22
2023-04-03T21:03:43.433Z,-0.18
2023-04-03T21:09:22.621Z,-0.20
2023-04-03T21:15:01.842Z,-0.15
2023-04-03T21:20:03.605Z,-0.06
2023-04-03T21:25:05.414Z,-0.04
2023-04-03T21:30:07.933Z,-0.07
2023-04-03T21:35:09.819Z,-0.07
2023-04-03T21:40:11.566Z,-0.04
2023-04-03T21:45:16.034Z,-0.17
2023-04-03T21:50:19.244Z,-0.17
2023-04-03T21:55:20.845Z,-0.13
2023-04-03T22:00:23.064Z,-0.16
2023-04-03T22:05:24.928Z,-0.10
2023-04-03T22:10:26.735Z,-0.15
2023-04-03T22:15:28.350Z,-0.16
2023-04-03T22:20:29.943Z,-0.15
2023-04-03T22:25:32.242Z,-0.14
2023-04-03T22:30:33.911Z,-0.23
2023-04-03T22:35:35.520Z,-0.32
2023-04-03T22:40:37.550Z,-0.45
2023-04-03T22:45:50.253Z,-0.63
2023-04-03T22:50:51.962Z,-0.73
2023-04-03T22:56:04.921Z,-0.64
2023-04-03T23:01:11.622Z,-0.61
2023-04-03T23:06:13.504Z,-0.56
2023-04-03T23:11:15.159Z,-0.39
2023-04-03T23:16:17.437Z,-0.35
2023-04-03T23:21:19.102Z,-0.32
2023-04-03T23:26:20.698Z,-0.29
2023-04-03T23:31:22.914Z,-0.36
2023-04-03T23:36:24.527Z,-0.30
2023-04-03T23:41:26.122Z,-0.19
2023-04-03T23:46:27.756Z,-0.23
2023-04-03T23:51:29.472Z,-0.26
2023-04-03T23:56:31.484Z,-0.18
